Time;durP1;ratioP1;P1;durP2;ratioP2;P2;SDS_P1;SDS_P2;PMS_P1;PMS_P2;Temp;Humidity;BMP_temperature;BMP_pressure;BME280_temperature;BME280_humidity;BME280_pressure;Samples;Min_cycle;Max_cycle;Signal;HPM_P1;HPM_P2
2022/08/14 00:01:18;;;;;;;23.35;6.20;;;;;;;;;;5037970;28;20027;-67
2022/08/14 00:03:44;;;;;;;20.88;5.93;;;;;;;;;;5039977;28;20036;-65
2022/08/14 00:06:10;;;;;;;18.85;5.78;;;;;;;;;;5038212;28;20025;-67
2022/08/14 00:08:36;;;;;;;28.58;6.15;;;;;;;;;;5032143;28;20109;-67
2022/08/14 00:11:03;;;;;;;21.95;5.13;;;;;;;;;;5036740;28;20033;-66
2022/08/14 00:13:29;;;;;;;25.20;4.35;;;;;;;;;;5029769;28;20503;-65
2022/08/14 00:15:56;;;;;;;19.60;3.05;;;;;;;;;;5042848;28;20028;-65
2022/08/14 00:18:23;;;;;;;19.30;2.75;;;;;;;;;;5027413;28;20028;-66
2022/08/14 00:20:49;;;;;;;15.38;2.47;;;;;;;;;;5034324;28;20354;-66
2022/08/14 00:23:16;;;;;;;15.80;2.50;;;;;;;;;;5037582;28;20028;-65
2022/08/14 00:25:44;;;;;;;16.13;2.90;;;;;;;;;;5052007;28;20285;-67
2022/08/14 00:28:12;;;;;;;18.25;2.92;;;;;;;;;;5041177;28;20067;-66
2022/08/14 00:30:38;;;;;;;13.05;2.30;;;;;;;;;;5034193;28;20039;-64
2022/08/14 00:33:04;;;;;;;14.35;2.33;;;;;;;;;;5038751;28;20097;-64
2022/08/14 00:35:31;;;;;;;19.17;2.53;;;;;;;;;;5033978;28;20538;-64
2022/08/14 00:37:57;;;;;;;15.60;2.28;;;;;;;;;;5039168;28;20123;-64
2022/08/14 00:40:23;;;;;;;16.92;2.38;;;;;;;;;;5034893;28;20028;-64
2022/08/14 00:42:50;;;;;;;16.23;2.25;;;;;;;;;;5038154;28;20226;-64
2022/08/14 00:45:17;;;;;;;13.35;2.03;;;;;;;;;;5041228;28;20040;-64
2022/08/14 00:47:44;;;;;;;10.30;1.77;;;;;;;;;;5030936;28;20395;-64
2022/08/14 00:50:11;;;;;;;16.30;2.30;;;;;;;;;;5036835;28;20688;-63
2022/08/14 00:52:38;;;;;;;13.82;2.45;;;;;;;;;;5036646;28;20054;-64
2022/08/14 00:55:05;;;;;;;11.88;2.33;;;;;;;;;;5043104;28;20127;-64
2022/08/14 00:57:32;;;;;;;11.20;2.25;;;;;;;;;;5041386;28;20068;-65
2022/08/14 00:59:59;;;;;;;12.25;1.90;;;;;;;;;;5044336;28;20120;-64
2022/08/14 01:02:26;;;;;;;20.27;2.05;;;;;;;;;;5034754;28;20024;-64
2022/08/14 01:04:53;;;;;;;17.52;2.20;;;;;;;;;;5043868;28;20024;-64
2022/08/14 01:07:20;;;;;;;9.52;1.92;;;;;;;;;;5037684;28;20028;-65
2022/08/14 01:09:48;;;;;;;12.02;1.98;;;;;;;;;;5038214;28;20115;-65
2022/08/14 01:12:14;;;;;;;15.88;2.08;;;;;;;;;;5042650;28;20426;-64
2022/08/14 01:14:40;;;;;;;13.88;2.25;;;;;;;;;;5032843;28;20724;-63
2022/08/14 01:17:07;;;;;;;11.30;2.08;;;;;;;;;;5041371;28;20032;-64
2022/08/14 01:22:18;;;;;;;12.02;1.90;;;;;;;;;;5032503;28;20129;-64
2022/08/14 01:24:44;;;;;;;9.95;2.17;;;;;;;;;;5043504;28;20428;-65
2022/08/14 01:27:16;;;;;;;13.23;2.20;;;;;;;;;;5043012;28;20488;-65
2022/08/14 01:29:43;;;;;;;9.45;1.90;;;;;;;;;;5039991;28;20145;-65
2022/08/14 01:32:09;;;;;;;11.75;2.00;;;;;;;;;;5038999;28;20101;-65
2022/08/14 01:34:35;;;;;;;14.40;2.20;;;;;;;;;;5034653;28;20105;-64
2022/08/14 01:37:01;;;;;;;14.43;2.13;;;;;;;;;;5042993;28;20024;-64
2022/08/14 01:39:28;;;;;;;13.50;2.00;;;;;;;;;;4992326;28;20387;-65
2022/08/14 01:41:59;;;;;;;19.08;2.95;;;;;;;;;;5058025;28;20521;-63
2022/08/14 01:44:30;;;;;;;18.20;2.78;;;;;;;;;;5058657;28;20052;-64
2022/08/14 01:47:00;;;;;;;18.50;3.08;;;;;;;;;;5052999;28;20023;-63
2022/08/14 01:49:26;;;;;;;14.13;2.90;;;;;;;;;;5046713;28;20123;-64
2022/08/14 01:51:55;;;;;;;18.25;3.17;;;;;;;;;;5056845;28;20469;-64
2022/08/14 01:54:22;;;;;;;16.27;3.10;;;;;;;;;;5051315;28;20065;-66
2022/08/14 01:56:51;;;;;;;14.90;2.90;;;;;;;;;;5056039;28;20062;-64
2022/08/14 01:59:20;;;;;;;18.25;2.72;;;;;;;;;;5052266;28;20056;-63
2022/08/14 02:01:51;;;;;;;14.68;2.63;;;;;;;;;;5056223;28;20280;-64
2022/08/14 02:04:22;;;;;;;19.88;3.10;;;;;;;;;;5054351;28;20557;-65
2022/08/14 02:06:52;;;;;;;17.65;2.63;;;;;;;;;;5055920;28;20036;-63
2022/08/14 02:09:19;;;;;;;16.13;2.78;;;;;;;;;;5051941;28;20492;-63
2022/08/14 02:11:45;;;;;;;22.15;2.90;;;;;;;;;;5055508;28;20024;-66
2022/08/14 02:14:13;;;;;;;18.42;2.70;;;;;;;;;;5042884;28;20919;-66
2022/08/14 02:16:41;;;;;;;16.75;2.72;;;;;;;;;;5016152;28;20454;-66
2022/08/14 02:19:15;;;;;;;18.98;2.67;;;;;;;;;;5018246;28;20038;-64
2022/08/14 02:21:42;;;;;;;16.45;3.00;;;;;;;;;;5015319;28;20020;-63
2022/08/14 02:24:09;;;;;;;17.40;3.17;;;;;;;;;;5017188;28;20052;-64
2022/08/14 02:26:36;;;;;;;17.27;3.00;;;;;;;;;;5011326;28;20061;-64
2022/08/14 02:29:08;;;;;;;13.57;2.60;;;;;;;;;;5014711;28;20101;-64
2022/08/14 02:31:36;;;;;;;14.85;2.90;;;;;;;;;;5014741;28;20794;-63
2022/08/14 02:34:09;;;;;;;15.52;2.80;;;;;;;;;;5014411;28;20417;-64
2022/08/14 02:36:35;;;;;;;18.30;2.72;;;;;;;;;;5016071;28;21388;-63
2022/08/14 02:39:01;;;;;;;14.60;3.08;;;;;;;;;;5021445;28;20028;-63
2022/08/14 02:41:28;;;;;;;16.65;2.70;;;;;;;;;;5015201;28;20082;-63
2022/08/14 02:43:54;;;;;;;17.42;2.42;;;;;;;;;;5020242;28;20036;-66
2022/08/14 02:46:21;;;;;;;20.75;2.90;;;;;;;;;;5016490;28;20024;-63
2022/08/14 02:48:47;;;;;;;14.95;2.75;;;;;;;;;;5016012;28;21774;-63
2022/08/14 02:51:14;;;;;;;13.52;2.53;;;;;;;;;;5037334;28;20489;-63
2022/08/14 02:53:41;;;;;;;19.25;2.97;;;;;;;;;;5058158;28;20044;-63
2022/08/14 02:56:09;;;;;;;18.05;2.63;;;;;;;;;;5057992;28;20024;-63
2022/08/14 02:58:37;;;;;;;15.40;2.92;;;;;;;;;;5054764;28;20048;-63
2022/08/14 03:01:04;;;;;;;15.43;2.60;;;;;;;;;;5056626;28;20406;-63
2022/08/14 03:03:30;;;;;;;15.52;2.40;;;;;;;;;;5050722;28;20044;-64
2022/08/14 03:05:57;;;;;;;16.77;2.75;;;;;;;;;;5060482;28;20028;-63
2022/08/14 03:08:30;;;;;;;14.98;2.80;;;;;;;;;;5060489;28;20032;-64
2022/08/14 03:10:56;;;;;;;15.98;2.97;;;;;;;;;;5059099;28;20090;-64
2022/08/14 03:13:23;;;;;;;17.42;2.83;;;;;;;;;;5052788;28;20227;-64
2022/08/14 03:15:52;;;;;;;16.73;2.47;;;;;;;;;;5056513;28;20074;-64
2022/08/14 03:18:22;;;;;;;16.30;2.80;;;;;;;;;;5055029;28;20083;-64
2022/08/14 03:20:49;;;;;;;17.45;3.10;;;;;;;;;;5054537;28;20024;-63
2022/08/14 03:23:15;;;;;;;20.20;3.25;;;;;;;;;;5056724;28;20058;-63
2022/08/14 03:25:41;;;;;;;18.48;3.30;;;;;;;;;;5054204;28;20479;-63
2022/08/14 03:28:09;;;;;;;17.80;3.00;;;;;;;;;;5054488;28;20024;-63
2022/08/14 03:30:37;;;;;;;18.23;3.10;;;;;;;;;;5051400;28;20071;-63
2022/08/14 03:33:03;;;;;;;18.70;2.95;;;;;;;;;;5053388;28;20061;-63
2022/08/14 03:35:29;;;;;;;16.55;2.80;;;;;;;;;;5052831;28;20044;-64
2022/08/14 03:38:03;;;;;;;17.23;3.28;;;;;;;;;;5058078;28;20029;-63
2022/08/14 03:40:29;;;;;;;13.73;2.40;;;;;;;;;;5049363;28;20090;-64
2022/08/14 03:42:55;;;;;;;14.27;2.72;;;;;;;;;;5056834;28;20032;-63
2022/08/14 03:45:23;;;;;;;16.35;2.92;;;;;;;;;;5050566;28;20028;-64
2022/08/14 03:47:50;;;;;;;17.98;3.00;;;;;;;;;;5060390;28;20572;-63
2022/08/14 03:50:16;;;;;;;13.27;3.05;;;;;;;;;;5057776;28;20089;-63
2022/08/14 03:52:43;;;;;;;22.88;2.75;;;;;;;;;;5058414;28;20141;-63
2022/08/14 03:55:11;;;;;;;17.13;3.10;;;;;;;;;;5055888;28;20498;-64
2022/08/14 03:57:38;;;;;;;20.90;3.50;;;;;;;;;;5057648;28;20154;-63
2022/08/14 04:00:09;;;;;;;18.77;2.90;;;;;;;;;;5059094;28;20573;-63
2022/08/14 04:02:37;;;;;;;16.10;2.92;;;;;;;;;;5053738;28;20039;-63
2022/08/14 04:05:04;;;;;;;13.20;2.58;;;;;;;;;;5055666;28;20065;-67
2022/08/14 04:07:30;;;;;;;18.95;2.88;;;;;;;;;;5048509;28;20482;-63
2022/08/14 04:09:56;;;;;;;21.67;3.15;;;;;;;;;;5058184;28;20623;-63
2022/08/14 04:12:22;;;;;;;16.40;3.13;;;;;;;;;;5047956;28;20660;-64
2022/08/14 04:14:51;;;;;;;15.82;2.70;;;;;;;;;;5052545;28;20040;-63
2022/08/14 04:17:18;;;;;;;15.13;2.63;;;;;;;;;;5049291;28;20028;-63
2022/08/14 04:19:46;;;;;;;20.63;3.05;;;;;;;;;;5051413;28;20028;-64
2022/08/14 04:22:12;;;;;;;13.18;2.75;;;;;;;;;;5052223;28;20067;-64
2022/08/14 04:24:39;;;;;;;18.35;2.95;;;;;;;;;;5050212;28;20024;-63
2022/08/14 04:27:14;;;;;;;18.20;3.30;;;;;;;;;;5054624;28;20123;-65
2022/08/14 04:29:41;;;;;;;15.52;2.80;;;;;;;;;;5054189;28;20028;-65
2022/08/14 04:32:08;;;;;;;19.50;3.22;;;;;;;;;;5052529;28;20036;-64
2022/08/14 04:34:38;;;;;;;15.55;2.70;;;;;;;;;;5047107;28;20050;-64
2022/08/14 04:45:22;;;;;;;14.90;2.75;;;;;;;;;;5051279;28;20043;-64
2022/08/14 04:50:34;;;;;;;13.67;2.63;;;;;;;;;;5048851;28;20240;-64
2022/08/14 04:53:00;;;;;;;14.13;3.03;;;;;;;;;;5058481;28;20034;-64
2022/08/14 04:55:26;;;;;;;19.38;3.03;;;;;;;;;;5052098;28;20044;-64
2022/08/14 04:57:53;;;;;;;13.68;2.55;;;;;;;;;;5059519;28;20172;-64
2022/08/14 05:00:20;;;;;;;17.60;3.13;;;;;;;;;;5070715;28;20075;-63
2022/08/14 05:02:47;;;;;;;13.45;2.78;;;;;;;;;;5055847;28;20324;-64
2022/08/14 05:05:13;;;;;;;17.98;3.10;;;;;;;;;;5059381;28;20913;-64
2022/08/14 05:07:41;;;;;;;17.05;2.90;;;;;;;;;;5054186;28;20130;-64
2022/08/14 05:10:07;;;;;;;22.13;3.28;;;;;;;;;;5055798;28;20351;-65
2022/08/14 05:12:33;;;;;;;16.10;3.08;;;;;;;;;;5052837;28;20063;-65
2022/08/14 05:15:01;;;;;;;15.85;2.70;;;;;;;;;;5058722;28;20476;-65
2022/08/14 05:17:27;;;;;;;15.73;3.47;;;;;;;;;;5046845;28;20029;-66
2022/08/14 05:19:53;;;;;;;16.38;3.15;;;;;;;;;;5054607;28;20577;-64
2022/08/14 05:22:20;;;;;;;17.50;3.42;;;;;;;;;;5054816;28;20375;-64
2022/08/14 05:24:48;;;;;;;16.30;3.38;;;;;;;;;;5043930;28;20390;-64
2022/08/14 05:27:14;;;;;;;16.38;2.85;;;;;;;;;;5052344;28;20024;-65
2022/08/14 05:29:43;;;;;;;22.27;3.40;;;;;;;;;;5048557;28;20561;-66
2022/08/14 05:32:10;;;;;;;17.63;2.92;;;;;;;;;;5053149;28;20112;-65
2022/08/14 05:34:36;;;;;;;14.82;2.85;;;;;;;;;;5053413;28;20044;-66
2022/08/14 05:37:02;;;;;;;19.92;3.10;;;;;;;;;;5053537;28;20071;-65
2022/08/14 05:39:29;;;;;;;17.50;3.08;;;;;;;;;;5046044;28;20473;-64
2022/08/14 05:41:55;;;;;;;20.83;3.50;;;;;;;;;;5060088;28;20101;-66
2022/08/14 05:44:22;;;;;;;13.07;2.85;;;;;;;;;;5049880;28;20028;-66
2022/08/14 05:46:48;;;;;;;15.18;2.95;;;;;;;;;;5055615;28;20027;-63
2022/08/14 05:49:14;;;;;;;17.42;2.80;;;;;;;;;;5054347;28;20032;-63
2022/08/14 05:51:41;;;;;;;15.05;3.00;;;;;;;;;;5050266;28;20463;-64
2022/08/14 05:54:07;;;;;;;17.52;2.92;;;;;;;;;;5054010;28;20567;-64
2022/08/14 05:56:33;;;;;;;17.25;2.88;;;;;;;;;;5055634;28;20024;-64
2022/08/14 05:58:59;;;;;;;14.90;3.03;;;;;;;;;;5057431;28;20544;-64
2022/08/14 06:01:25;;;;;;;12.63;2.70;;;;;;;;;;5053093;28;20040;-65
2022/08/14 06:03:51;;;;;;;14.77;3.13;;;;;;;;;;5059519;28;20102;-64
2022/08/14 06:06:18;;;;;;;19.13;3.15;;;;;;;;;;5050918;28;20481;-64
2022/08/14 06:08:44;;;;;;;18.05;3.10;;;;;;;;;;5054528;28;20036;-64
2022/08/14 06:11:10;;;;;;;17.65;2.95;;;;;;;;;;5058789;28;20035;-64
2022/08/14 06:13:38;;;;;;;15.30;2.63;;;;;;;;;;5051236;28;22143;-64
2022/08/14 06:16:04;;;;;;;15.25;2.83;;;;;;;;;;5056199;28;20037;-63
2022/08/14 06:18:32;;;;;;;17.67;3.13;;;;;;;;;;5050459;28;20075;-63
2022/08/14 06:20:58;;;;;;;14.43;3.17;;;;;;;;;;5054414;28;20307;-64
2022/08/14 06:23:24;;;;;;;17.17;3.22;;;;;;;;;;5052387;28;20024;-64
2022/08/14 06:25:50;;;;;;;15.38;2.83;;;;;;;;;;5057670;28;20035;-64
2022/08/14 06:28:21;;;;;;;15.52;3.10;;;;;;;;;;5057135;28;20498;-63
2022/08/14 06:30:47;;;;;;;17.92;3.15;;;;;;;;;;5049673;28;20032;-66
2022/08/14 06:33:14;;;;;;;19.85;3.38;;;;;;;;;;5053152;28;20039;-65
2022/08/14 06:35:40;;;;;;;19.05;3.30;;;;;;;;;;5041704;28;20044;-66
2022/08/14 06:38:07;;;;;;;17.80;3.05;;;;;;;;;;5051102;28;20509;-66
2022/08/14 06:40:34;;;;;;;14.27;3.40;;;;;;;;;;5045724;28;20404;-64
2022/08/14 06:43:04;;;;;;;18.20;2.97;;;;;;;;;;5057082;28;20140;-65
2022/08/14 06:45:34;;;;;;;17.38;3.33;;;;;;;;;;5045847;28;20028;-64
2022/08/14 06:48:00;;;;;;;18.58;3.20;;;;;;;;;;5051121;28;20031;-64
2022/08/14 06:50:27;;;;;;;16.83;3.17;;;;;;;;;;5046105;28;20056;-64
2022/08/14 06:52:53;;;;;;;20.42;3.60;;;;;;;;;;5050069;28;20089;-65
2022/08/14 06:55:19;;;;;;;22.90;3.53;;;;;;;;;;5044926;28;20395;-63
2022/08/14 06:57:47;;;;;;;17.52;3.50;;;;;;;;;;5054391;28;20031;-64
2022/08/14 07:00:18;;;;;;;22.17;3.58;;;;;;;;;;5047792;28;20036;-67
2022/08/14 07:05:47;;;;;;;19.80;2.97;;;;;;;;;;5045455;28;20078;-64
2022/08/14 07:08:18;;;;;;;21.60;3.80;;;;;;;;;;5051533;28;20025;-64
2022/08/14 07:10:45;;;;;;;18.80;3.95;;;;;;;;;;5051383;28;20075;-65
2022/08/14 07:13:12;;;;;;;16.15;3.20;;;;;;;;;;5052887;28;20375;-64
2022/08/14 07:15:39;;;;;;;14.98;3.28;;;;;;;;;;5046432;28;20029;-63
2022/08/14 07:18:05;;;;;;;14.48;3.08;;;;;;;;;;5052397;28;20032;-63
2022/08/14 07:20:31;;;;;;;17.70;3.42;;;;;;;;;;5049462;28;20036;-64
2022/08/14 07:22:59;;;;;;;20.67;3.35;;;;;;;;;;5045965;28;20024;-63
2022/08/14 07:25:25;;;;;;;20.13;3.35;;;;;;;;;;5060263;28;20090;-65
2022/08/14 07:27:51;;;;;;;16.65;3.22;;;;;;;;;;5051099;28;20048;-64
2022/08/14 07:30:18;;;;;;;18.83;3.20;;;;;;;;;;5052570;28;20110;-65
2022/08/14 07:32:44;;;;;;;17.30;3.15;;;;;;;;;;5049498;28;20517;-65
2022/08/14 07:35:10;;;;;;;18.00;3.58;;;;;;;;;;5048698;28;20033;-64
2022/08/14 07:37:36;;;;;;;15.65;3.17;;;;;;;;;;5044815;28;20138;-64
2022/08/14 07:40:03;;;;;;;14.77;3.17;;;;;;;;;;5047001;28;20394;-64
2022/08/14 07:42:30;;;;;;;22.00;3.45;;;;;;;;;;5048748;28;20402;-64
2022/08/14 07:44:56;;;;;;;21.25;3.67;;;;;;;;;;5047892;28;20093;-66
2022/08/14 07:47:23;;;;;;;19.15;3.60;;;;;;;;;;5034728;28;20448;-66
2022/08/14 07:50:03;;;;;;;17.35;3.15;;;;;;;;;;5037371;28;20053;-64
2022/08/14 07:52:29;;;;;;;16.48;3.22;;;;;;;;;;5037947;28;20189;-64
2022/08/14 07:54:56;;;;;;;16.50;3.08;;;;;;;;;;5037524;28;20103;-65
2022/08/14 07:57:23;;;;;;;15.52;3.10;;;;;;;;;;5035940;28;20044;-64
2022/08/14 07:59:49;;;;;;;15.80;2.90;;;;;;;;;;5039584;28;20040;-64
2022/08/14 08:02:16;;;;;;;15.25;3.20;;;;;;;;;;5041799;28;20032;-65
2022/08/14 08:04:44;;;;;;;20.55;4.22;;;;;;;;;;5038360;28;20029;-64
2022/08/14 08:07:10;;;;;;;18.02;3.58;;;;;;;;;;5040695;28;20024;-64
2022/08/14 08:09:38;;;;;;;14.73;3.15;;;;;;;;;;5036824;28;20129;-64
2022/08/14 08:12:04;;;;;;;19.38;3.10;;;;;;;;;;5041331;28;20493;-64
2022/08/14 08:14:33;;;;;;;17.55;3.20;;;;;;;;;;5035660;28;20027;-64
2022/08/14 08:17:00;;;;;;;15.98;3.22;;;;;;;;;;5038611;28;20580;-64
2022/08/14 08:19:26;;;;;;;15.68;3.45;;;;;;;;;;5035036;28;20024;-65
2022/08/14 08:21:53;;;;;;;18.90;2.88;;;;;;;;;;5040246;28;20073;-65
2022/08/14 08:24:19;;;;;;;14.88;3.13;;;;;;;;;;5038650;28;20508;-65
2022/08/14 08:26:45;;;;;;;15.35;3.38;;;;;;;;;;5044321;28;20413;-65
2022/08/14 08:29:18;;;;;;;17.25;3.03;;;;;;;;;;5042014;28;20046;-66
2022/08/14 08:31:49;;;;;;;15.73;3.05;;;;;;;;;;5040563;28;20482;-65
2022/08/14 08:34:15;;;;;;;19.65;3.53;;;;;;;;;;5044656;28;20120;-65
2022/08/14 08:36:42;;;;;;;17.35;4.82;;;;;;;;;;5033674;28;20120;-65
2022/08/14 08:39:08;;;;;;;18.10;4.13;;;;;;;;;;5035171;28;20032;-65
2022/08/14 08:41:40;;;;;;;14.32;3.35;;;;;;;;;;5038810;28;20498;-65
2022/08/14 08:44:07;;;;;;;15.52;3.03;;;;;;;;;;5040276;28;20036;-65
2022/08/14 08:46:33;;;;;;;14.65;3.20;;;;;;;;;;5042131;28;20024;-65
2022/08/14 08:48:59;;;;;;;16.25;3.40;;;;;;;;;;5037502;28;20378;-65
2022/08/14 08:51:29;;;;;;;21.17;3.40;;;;;;;;;;5038244;28;20040;-66
2022/08/14 08:54:15;;;;;;;13.80;3.03;;;;;;;;;;5039136;28;20572;-67
2022/08/14 08:56:41;;;;;;;;;;;;;;;;;;5040455;28;20150;-66
2022/08/14 08:59:07;;;;;;;;;;;;;;;;;;5041334;28;19912;-64
2022/08/14 09:01:33;;;;;;;;;;;;;;;;;;5040509;28;20503;-66
2022/08/14 09:03:59;;;;;;;;;;;;;;;;;;5039593;28;20374;-65
2022/08/14 09:06:25;;;;;;;;;;;;;;;;;;5042439;28;20421;-65
2022/08/14 09:08:51;;;;;;;;;;;;;;;;;;5037927;28;19985;-65
2022/08/14 09:11:23;;;;;;;19.50;3.13;;;;;;;;;;5045801;28;19923;-66
2022/08/14 09:13:53;;;;;;;27.75;4.60;;;;;;;;;;5040172;28;20556;-65
2022/08/14 09:16:24;;;;;;;17.65;3.20;;;;;;;;;;5037495;28;20105;-64
2022/08/14 09:18:50;;;;;;;17.27;3.38;;;;;;;;;;5043647;28;20623;-65
2022/08/14 09:21:17;;;;;;;15.68;3.50;;;;;;;;;;5040054;28;20036;-66
2022/08/14 09:23:43;;;;;;;19.50;3.50;;;;;;;;;;5043569;28;20085;-65
2022/08/14 09:26:09;;;;;;;14.95;3.47;;;;;;;;;;5040590;28;21154;-64
2022/08/14 09:28:36;;;;;;;17.58;3.60;;;;;;;;;;5036358;28;20447;-65
2022/08/14 09:31:02;;;;;;;15.48;3.20;;;;;;;;;;5043111;28;20520;-64
2022/08/14 09:33:31;;;;;;;20.38;3.50;;;;;;;;;;5038246;28;20777;-64
2022/08/14 09:35:57;;;;;;;21.23;3.70;;;;;;;;;;5042751;28;20033;-63
2022/08/14 09:38:33;;;;;;;14.77;3.00;;;;;;;;;;5034916;28;20036;-64
2022/08/14 09:40:59;;;;;;;;;;;;;;;;;;5041525;28;20035;-64
2022/08/14 09:44:05;;;;;;;16.52;3.25;;;;;;;;;;5034674;28;19919;-64
2022/08/14 09:46:31;;;;;;;16.73;3.33;;;;;;;;;;4973822;28;20042;-64
2022/08/14 09:48:58;;;;;;;14.43;3.13;;;;;;;;;;4992818;28;20297;-64
2022/08/14 09:51:26;;;;;;;14.88;3.28;;;;;;;;;;4988898;28;20141;-64
2022/08/14 09:54:06;;;;;;;16.45;3.35;;;;;;;;;;4975773;28;20436;-64
2022/08/14 09:56:45;;;;;;;18.90;3.45;;;;;;;;;;4988163;28;20068;-64
2022/08/14 09:59:13;;;;;;;13.82;3.28;;;;;;;;;;4991727;28;20039;-63
2022/08/14 10:01:40;;;;;;;19.88;3.42;;;;;;;;;;4991776;28;20702;-65
2022/08/14 10:04:18;;;;;;;15.18;3.28;;;;;;;;;;4992685;28;20069;-65
2022/08/14 10:06:44;;;;;;;18.65;5.10;;;;;;;;;;4974164;28;20013;-64
2022/08/14 10:09:10;;;;;;;14.35;3.05;;;;;;;;;;4991975;28;20091;-63
2022/08/14 10:11:38;;;;;;;18.83;5.38;;;;;;;;;;4986030;28;23079;-65
2022/08/14 10:14:20;;;;;;;16.40;3.80;;;;;;;;;;4977032;28;20045;-64
2022/08/14 10:16:52;;;;;;;14.98;3.15;;;;;;;;;;4989673;28;20510;-63
2022/08/14 10:19:19;;;;;;;14.65;2.83;;;;;;;;;;5039974;28;20083;-64
2022/08/14 10:21:56;;;;;;;43.15;32.83;;;;;;;;;;5039453;28;20477;-64
2022/08/14 10:24:26;;;;;;;34.95;24.98;;;;;;;;;;5038071;28;20362;-64
2022/08/14 10:26:54;;;;;;;18.50;6.68;;;;;;;;;;5041800;28;20459;-63
2022/08/14 10:29:30;;;;;;;19.27;4.07;;;;;;;;;;5038570;28;20056;-65
2022/08/14 10:31:58;;;;;;;15.13;3.88;;;;;;;;;;5042197;28;20413;-65
2022/08/14 10:34:30;;;;;;;17.75;3.67;;;;;;;;;;5038003;28;20043;-65
2022/08/14 10:37:02;;;;;;;14.80;2.95;;;;;;;;;;5044797;28;20429;-64
2022/08/14 10:39:29;;;;;;;15.30;3.35;;;;;;;;;;5038174;28;20438;-64
2022/08/14 10:42:09;;;;;;;16.13;3.30;;;;;;;;;;5044377;28;20032;-65
2022/08/14 10:44:37;;;;;;;14.88;3.38;;;;;;;;;;5062063;28;20494;-65
2022/08/14 10:47:09;;;;;;;15.23;3.28;;;;;;;;;;5038478;28;20504;-66
2022/08/14 10:49:36;;;;;;;19.63;3.85;;;;;;;;;;5039193;28;20028;-65
2022/08/14 10:52:07;;;;;;;12.63;2.90;;;;;;;;;;5048522;28;20612;-66
2022/08/14 10:54:33;;;;;;;17.00;3.60;;;;;;;;;;5034604;28;20745;-66
2022/08/14 10:57:18;;;;;;;16.42;3.80;;;;;;;;;;5035051;28;20036;-62
2022/08/14 10:59:44;;;;;;;;;;;;;;;;;;5044564;28;20035;-65
2022/08/14 11:02:19;;;;;;;17.45;3.55;;;;;;;;;;5048459;28;19911;-62
2022/08/14 11:04:56;;;;;;;16.80;3.50;;;;;;;;;;5045208;28;20320;-66
2022/08/14 11:07:22;;;;;;;20.02;4.05;;;;;;;;;;5040536;28;20392;-67
2022/08/14 11:09:56;;;;;;;16.55;4.30;;;;;;;;;;5043913;28;20480;-66
2022/08/14 11:12:22;;;;;;;17.52;3.85;;;;;;;;;;5037419;28;20839;-62
2022/08/14 11:14:56;;;;;;;21.60;4.35;;;;;;;;;;5059965;28;20505;-64
2022/08/14 11:17:24;;;;;;;19.20;4.20;;;;;;;;;;5042670;28;20625;-64
2022/08/14 11:19:52;;;;;;;17.25;3.50;;;;;;;;;;5040517;28;20082;-64
2022/08/14 11:22:21;;;;;;;15.82;3.58;;;;;;;;;;5044012;28;20031;-64
2022/08/14 11:24:49;;;;;;;17.40;4.75;;;;;;;;;;5046298;28;20030;-64
2022/08/14 11:27:16;;;;;;;16.92;3.72;;;;;;;;;;5043497;28;20382;-63
2022/08/14 11:29:43;;;;;;;15.43;3.55;;;;;;;;;;5043900;28;20032;-64
2022/08/14 11:32:09;;;;;;;18.40;4.25;;;;;;;;;;5039988;28;20033;-65
2022/08/14 11:34:36;;;;;;;18.67;3.50;;;;;;;;;;5039490;28;20072;-65
2022/08/14 11:37:12;;;;;;;19.60;4.00;;;;;;;;;;5041502;28;20408;-63
2022/08/14 11:39:39;;;;;;;18.80;3.85;;;;;;;;;;5031083;28;20584;-64
2022/08/14 11:42:06;;;;;;;16.73;3.47;;;;;;;;;;5039888;28;20024;-64
2022/08/14 11:44:32;;;;;;;17.25;3.65;;;;;;;;;;5034147;28;20543;-66
2022/08/14 11:47:00;;;;;;;16.58;3.53;;;;;;;;;;5038056;28;20032;-64
2022/08/14 11:49:27;;;;;;;15.13;3.35;;;;;;;;;;5036924;28;20020;-66
2022/08/14 11:51:54;;;;;;;14.00;3.70;;;;;;;;;;5036815;28;20069;-64
2022/08/14 11:54:21;;;;;;;15.68;3.60;;;;;;;;;;5038766;28;20052;-64
2022/08/14 11:56:50;;;;;;;14.70;3.67;;;;;;;;;;5044671;28;20478;-64
2022/08/14 11:59:17;;;;;;;15.80;3.58;;;;;;;;;;5041792;28;20066;-65
2022/08/14 12:01:45;;;;;;;19.45;3.63;;;;;;;;;;5040419;28;19947;-64
2022/08/14 12:04:18;;;;;;;15.35;3.42;;;;;;;;;;5046133;28;20028;-63
2022/08/14 12:06:47;;;;;;;18.25;4.45;;;;;;;;;;5042905;28;20032;-64
2022/08/14 12:09:14;;;;;;;15.13;3.30;;;;;;;;;;5038485;28;20079;-63
2022/08/14 12:11:41;;;;;;;14.43;3.65;;;;;;;;;;5041369;28;20043;-63
2022/08/14 12:14:08;;;;;;;15.85;3.53;;;;;;;;;;5039392;28;20032;-63
2022/08/14 12:16:37;;;;;;;16.98;4.28;;;;;;;;;;5035582;28;20589;-63
2022/08/14 12:19:04;;;;;;;15.93;3.40;;;;;;;;;;5039099;28;20558;-62
2022/08/14 12:21:31;;;;;;;16.80;3.17;;;;;;;;;;5036733;28;20036;-63
2022/08/14 12:24:07;;;;;;;12.73;3.17;;;;;;;;;;5038283;28;20487;-63
2022/08/14 12:26:35;;;;;;;18.00;3.60;;;;;;;;;;5033941;28;20028;-63
2022/08/14 12:29:09;;;;;;;15.48;3.63;;;;;;;;;;5039925;28;20704;-63
2022/08/14 12:31:35;;;;;;;22.05;4.18;;;;;;;;;;5034781;28;20055;-63
2022/08/14 12:34:03;;;;;;;15.05;4.22;;;;;;;;;;5040397;28;20040;-63
2022/08/14 12:36:29;;;;;;;13.60;3.72;;;;;;;;;;5038280;28;20462;-64
2022/08/14 12:38:59;;;;;;;20.45;4.30;;;;;;;;;;5038333;28;20040;-63
2022/08/14 12:41:28;;;;;;;15.32;3.58;;;;;;;;;;5035518;28;20058;-64
2022/08/14 12:43:56;;;;;;;14.52;3.55;;;;;;;;;;5040309;28;20036;-62
2022/08/14 12:46:33;;;;;;;14.43;3.30;;;;;;;;;;5037920;28;20110;-64
2022/08/14 12:49:05;;;;;;;16.75;3.90;;;;;;;;;;5035624;28;20062;-65
2022/08/14 12:51:32;;;;;;;17.15;3.97;;;;;;;;;;5040002;28;20041;-64
2022/08/14 12:53:59;;;;;;;14.25;3.22;;;;;;;;;;5044390;28;20036;-63
2022/08/14 12:56:25;;;;;;;15.93;3.80;;;;;;;;;;5035549;28;20269;-64
2022/08/14 12:58:53;;;;;;;17.33;3.80;;;;;;;;;;5038846;28;20346;-62
2022/08/14 13:01:20;;;;;;;20.70;3.83;;;;;;;;;;5038812;28;20544;-63
2022/08/14 13:03:46;;;;;;;14.15;3.63;;;;;;;;;;5036550;28;20028;-62
2022/08/14 13:06:13;;;;;;;13.77;3.90;;;;;;;;;;5038947;28;20116;-63
2022/08/14 13:08:41;;;;;;;17.08;4.00;;;;;;;;;;5036348;28;20029;-63
2022/08/14 13:11:11;;;;;;;18.20;4.18;;;;;;;;;;5035384;28;20056;-65
2022/08/14 13:13:39;;;;;;;18.30;4.10;;;;;;;;;;5033320;28;21081;-65
2022/08/14 13:16:05;;;;;;;19.00;3.90;;;;;;;;;;5040545;28;21779;-64
2022/08/14 13:18:32;;;;;;;15.23;3.30;;;;;;;;;;5035642;28;20128;-63
2022/08/14 13:21:00;;;;;;;17.92;3.50;;;;;;;;;;5038969;28;20385;-63
2022/08/14 13:23:27;;;;;;;14.98;3.50;;;;;;;;;;5038916;28;20021;-64
2022/08/14 13:25:54;;;;;;;18.33;3.85;;;;;;;;;;5042412;28;20373;-64
2022/08/14 13:28:22;;;;;;;14.77;3.60;;;;;;;;;;5038876;28;20352;-63
2022/08/14 13:30:49;;;;;;;13.57;3.20;;;;;;;;;;5037631;28;20032;-63
2022/08/14 13:33:16;;;;;;;16.35;3.60;;;;;;;;;;5039243;28;20025;-65
2022/08/14 13:35:46;;;;;;;15.45;3.15;;;;;;;;;;5033270;28;20036;-66
2022/08/14 13:38:13;;;;;;;15.88;3.30;;;;;;;;;;5036269;28;20024;-63
2022/08/14 13:40:39;;;;;;;18.77;4.10;;;;;;;;;;5034177;28;20126;-63
2022/08/14 13:43:07;;;;;;;17.00;3.65;;;;;;;;;;5039917;28;20090;-65
2022/08/14 13:45:34;;;;;;;13.88;3.30;;;;;;;;;;5038545;28;20452;-64
2022/08/14 13:48:00;;;;;;;16.30;3.40;;;;;;;;;;5037441;28;20022;-65
2022/08/14 13:50:26;;;;;;;14.20;3.67;;;;;;;;;;5033472;28;20119;-66
2022/08/14 13:52:52;;;;;;;17.70;4.10;;;;;;;;;;5043068;28;20035;-66
2022/08/14 13:55:25;;;;;;;17.35;3.92;;;;;;;;;;5038876;28;20036;-65
2022/08/14 13:57:54;;;;;;;16.65;3.92;;;;;;;;;;5042813;28;20347;-65
2022/08/14 14:00:20;;;;;;;15.52;3.72;;;;;;;;;;5051479;28;20032;-65
2022/08/14 14:02:47;;;;;;;17.17;3.97;;;;;;;;;;5034581;28;20028;-65
2022/08/14 14:05:17;;;;;;;17.67;3.70;;;;;;;;;;5035561;28;20386;-65
2022/08/14 14:07:48;;;;;;;14.35;3.70;;;;;;;;;;5035244;28;20020;-65
2022/08/14 14:10:15;;;;;;;16.80;3.72;;;;;;;;;;5042028;28;20037;-69
2022/08/14 14:12:42;;;;;;;14.23;4.15;;;;;;;;;;5039198;28;20753;-66
2022/08/14 14:15:10;;;;;;;14.73;3.83;;;;;;;;;;5058362;28;20147;-68
2022/08/14 14:17:36;;;;;;;17.80;5.32;;;;;;;;;;5037173;28;20028;-67
2022/08/14 14:20:04;;;;;;;17.08;4.75;;;;;;;;;;5041694;28;20036;-68
2022/08/14 14:22:30;;;;;;;20.33;4.30;;;;;;;;;;5039747;28;20029;-65
2022/08/14 14:24:56;;;;;;;18.77;4.35;;;;;;;;;;5045573;28;20033;-65
2022/08/14 14:27:25;;;;;;;15.95;4.00;;;;;;;;;;5040910;28;20427;-65
2022/08/14 14:29:52;;;;;;;14.80;4.03;;;;;;;;;;5042404;28;20040;-66
2022/08/14 14:32:18;;;;;;;16.13;3.55;;;;;;;;;;5039012;28;20604;-65
2022/08/14 14:34:45;;;;;;;17.88;3.67;;;;;;;;;;5039116;28;20378;-65
2022/08/14 14:37:14;;;;;;;15.93;3.60;;;;;;;;;;5041012;28;20465;-65
2022/08/14 14:39:40;;;;;;;13.80;3.40;;;;;;;;;;5038622;28;20047;-67
2022/08/14 14:42:08;;;;;;;19.05;4.30;;;;;;;;;;5044268;28;20036;-64
2022/08/14 14:44:39;;;;;;;16.65;4.18;;;;;;;;;;5041206;28;20039;-65
2022/08/14 14:47:07;;;;;;;18.73;3.65;;;;;;;;;;5045107;28;20120;-66
2022/08/14 14:49:33;;;;;;;15.82;3.60;;;;;;;;;;5042328;28;20103;-65
2022/08/14 14:52:02;;;;;;;15.20;4.03;;;;;;;;;;5040273;28;20036;-63
2022/08/14 14:54:29;;;;;;;14.93;3.83;;;;;;;;;;5038565;28;20139;-64